Time;durP1;ratioP1;P1;durP2;ratioP2;P2;SDS_P1;SDS_P2;PMS_P1;PMS_P2;Temp;Humidity;BMP_temperature;BMP_pressure;BME280_temperature;BME280_humidity;BME280_pressure;Samples;Min_cycle;Max_cycle;Signal;HPM_P1;HPM_P2
2023/04/19 00:00:14;;;;;;;13.40;10.40;;;;;;;;;;5050787;28;20696;-62
2023/04/19 00:02:42;;;;;;;13.57;10.98;;;;;;;;;;5051192;28;20203;-64
2023/04/19 00:05:12;;;;;;;13.57;10.98;;;;;;;;;;5050786;28;20207;-62
2023/04/19 00:07:40;;;;;;;12.73;10.35;;;;;;;;;;5052170;28;20224;-62
2023/04/19 00:10:10;;;;;;;12.63;11.23;;;;;;;;;;5051393;28;20238;-61
2023/04/19 00:12:38;;;;;;;14.95;11.20;;;;;;;;;;5052418;28;20200;-62
2023/04/19 00:15:07;;;;;;;14.15;11.52;;;;;;;;;;5052146;28;20204;-62
2023/04/19 00:17:35;;;;;;;11.75;10.55;;;;;;;;;;5051841;28;20570;-62
2023/04/19 00:20:04;;;;;;;12.32;10.98;;;;;;;;;;5051622;28;20234;-62
2023/04/19 00:22:32;;;;;;;15.30;11.80;;;;;;;;;;5053207;28;20210;-62
2023/04/19 00:25:01;;;;;;;12.43;10.57;;;;;;;;;;5055790;28;20193;-62
2023/04/19 00:27:32;;;;;;;16.90;12.07;;;;;;;;;;5060599;28;20213;-62
2023/04/19 00:30:03;;;;;;;15.15;11.98;;;;;;;;;;5050929;28;20189;-62
2023/04/19 00:32:33;;;;;;;13.30;10.57;;;;;;;;;;5071121;28;20215;-62
2023/04/19 00:35:02;;;;;;;13.68;11.52;;;;;;;;;;5072093;28;20732;-63
2023/04/19 00:37:32;;;;;;;13.95;11.55;;;;;;;;;;5070728;28;20195;-62
2023/04/19 00:40:00;;;;;;;14.90;10.63;;;;;;;;;;5072175;28;20200;-61
2023/04/19 00:42:30;;;;;;;15.15;11.45;;;;;;;;;;5071102;28;20210;-61
2023/04/19 00:44:58;;;;;;;12.35;10.55;;;;;;;;;;5052135;28;20608;-63
2023/04/19 00:47:27;;;;;;;12.60;9.95;;;;;;;;;;5052008;28;20250;-63
2023/04/19 00:49:55;;;;;;;12.23;10.90;;;;;;;;;;5051257;28;20644;-63
2023/04/19 00:52:23;;;;;;;15.85;10.40;;;;;;;;;;5034376;28;20693;-63
2023/04/19 00:54:52;;;;;;;12.98;10.85;;;;;;;;;;5050157;28;20211;-66
2023/04/19 00:57:21;;;;;;;12.30;10.57;;;;;;;;;;5055204;28;20211;-63
2023/04/19 00:59:53;;;;;;;12.65;10.18;;;;;;;;;;5055194;28;20614;-64
2023/04/19 01:02:21;;;;;;;14.65;10.15;;;;;;;;;;5054599;28;20761;-61
2023/04/19 01:04:51;;;;;;;14.75;11.90;;;;;;;;;;5054008;28;20580;-60
2023/04/19 01:07:20;;;;;;;14.27;10.10;;;;;;;;;;5055024;28;20231;-64
2023/04/19 01:09:48;;;;;;;14.95;10.75;;;;;;;;;;5054068;28;20243;-63
2023/04/19 01:12:16;;;;;;;13.65;10.60;;;;;;;;;;5058731;28;20254;-63
2023/04/19 01:14:44;;;;;;;12.15;10.85;;;;;;;;;;5061722;28;20197;-63
2023/04/19 01:17:14;;;;;;;14.82;10.18;;;;;;;;;;5054021;28;20690;-63
2023/04/19 01:19:42;;;;;;;14.05;10.93;;;;;;;;;;5054762;28;20249;-64
2023/04/19 01:22:11;;;;;;;14.30;11.25;;;;;;;;;;5054290;28;20217;-64
2023/04/19 01:24:40;;;;;;;12.48;10.30;;;;;;;;;;5054950;28;20304;-63
2023/04/19 01:27:10;;;;;;;12.30;10.45;;;;;;;;;;5073210;28;20211;-63
2023/04/19 01:29:38;;;;;;;13.85;10.90;;;;;;;;;;5058257;28;20205;-63
2023/04/19 01:32:06;;;;;;;13.48;11.05;;;;;;;;;;5074148;28;20192;-64
2023/04/19 01:34:35;;;;;;;12.63;10.98;;;;;;;;;;5071419;28;20205;-64
2023/04/19 01:37:05;;;;;;;13.32;11.55;;;;;;;;;;5067054;28;20192;-63
2023/04/19 01:39:35;;;;;;;16.02;10.80;;;;;;;;;;5056508;28;20201;-63
2023/04/19 01:42:04;;;;;;;15.27;11.65;;;;;;;;;;5054338;28;20216;-63
2023/04/19 01:44:33;;;;;;;13.45;10.65;;;;;;;;;;5054707;28;20193;-62
2023/04/19 01:47:01;;;;;;;13.23;10.38;;;;;;;;;;5054319;28;20710;-62
2023/04/19 01:49:29;;;;;;;13.85;11.75;;;;;;;;;;5070673;28;20207;-62
2023/04/19 01:51:58;;;;;;;15.27;11.48;;;;;;;;;;5056470;28;20548;-62
2023/04/19 01:54:26;;;;;;;12.95;10.77;;;;;;;;;;5053064;28;20201;-62
2023/04/19 01:56:54;;;;;;;14.10;11.10;;;;;;;;;;5070894;28;20540;-62
2023/04/19 01:59:24;;;;;;;12.70;9.93;;;;;;;;;;5060279;28;20207;-62
2023/04/19 02:01:52;;;;;;;12.27;10.75;;;;;;;;;;5052452;28;20658;-63
2023/04/19 02:04:21;;;;;;;12.88;10.98;;;;;;;;;;5053309;28;20204;-62
2023/04/19 02:06:49;;;;;;;12.07;10.05;;;;;;;;;;5052603;28;20677;-62
2023/04/19 02:09:18;;;;;;;11.52;9.65;;;;;;;;;;5063413;28;20204;-62
2023/04/19 02:11:47;;;;;;;10.98;9.60;;;;;;;;;;5053287;28;20212;-62
2023/04/19 02:14:15;;;;;;;13.10;10.45;;;;;;;;;;5053220;28;20253;-62
2023/04/19 02:16:45;;;;;;;13.60;11.65;;;;;;;;;;5054759;28;20200;-64
2023/04/19 02:19:13;;;;;;;16.75;10.60;;;;;;;;;;5062805;28;20205;-63
2023/04/19 02:21:41;;;;;;;11.30;10.07;;;;;;;;;;5054008;28;20315;-64
2023/04/19 02:24:09;;;;;;;11.60;10.20;;;;;;;;;;5070383;28;20563;-63
2023/04/19 02:26:38;;;;;;;11.32;10.13;;;;;;;;;;5073345;28;20233;-62
2023/04/19 02:29:06;;;;;;;12.77;9.68;;;;;;;;;;5073675;28;20220;-62
2023/04/19 02:31:34;;;;;;;15.35;11.65;;;;;;;;;;5072846;28;20208;-62
2023/04/19 02:34:04;;;;;;;11.25;9.98;;;;;;;;;;5073486;28;20214;-62
2023/04/19 02:36:34;;;;;;;11.73;10.25;;;;;;;;;;5053526;28;20192;-62
2023/04/19 02:39:04;;;;;;;15.13;11.50;;;;;;;;;;5052980;28;20635;-62
2023/04/19 02:41:32;;;;;;;12.60;10.68;;;;;;;;;;5053472;28;20574;-62
2023/04/19 02:44:03;;;;;;;11.38;10.18;;;;;;;;;;5053048;28;20552;-62
2023/04/19 02:46:31;;;;;;;12.85;10.77;;;;;;;;;;5052904;28;20205;-62
2023/04/19 02:49:01;;;;;;;12.13;9.63;;;;;;;;;;5053603;28;20220;-62
2023/04/19 02:51:30;;;;;;;11.38;9.82;;;;;;;;;;5051847;28;20216;-62
2023/04/19 02:53:59;;;;;;;12.75;10.27;;;;;;;;;;5052295;28;20212;-62
2023/04/19 02:56:27;;;;;;;10.52;9.20;;;;;;;;;;5051882;28;20208;-62
2023/04/19 02:58:56;;;;;;;11.50;10.40;;;;;;;;;;5052756;28;20200;-62
2023/04/19 03:01:24;;;;;;;11.75;9.60;;;;;;;;;;5051733;28;20212;-63
2023/04/19 03:03:52;;;;;;;11.30;10.20;;;;;;;;;;5051292;28;20527;-62
2023/04/19 03:06:21;;;;;;;11.48;9.25;;;;;;;;;;5051128;28;20386;-62
2023/04/19 03:08:50;;;;;;;12.57;10.13;;;;;;;;;;5053928;28;20216;-62
2023/04/19 03:11:20;;;;;;;11.98;10.70;;;;;;;;;;5051376;28;20232;-63
2023/04/19 03:13:48;;;;;;;10.88;9.20;;;;;;;;;;5052051;28;20205;-63
2023/04/19 03:16:16;;;;;;;10.23;8.98;;;;;;;;;;5051483;28;20235;-62
2023/04/19 03:18:45;;;;;;;9.98;8.75;;;;;;;;;;5057048;28;20208;-62
2023/04/19 03:21:14;;;;;;;10.60;8.48;;;;;;;;;;5070902;28;20242;-61
2023/04/19 03:23:51;;;;;;;11.23;9.60;;;;;;;;;;5062642;28;20192;-62
2023/04/19 03:26:20;;;;;;;10.35;9.23;;;;;;;;;;5051334;28;20196;-62
2023/04/19 03:28:52;;;;;;;9.90;8.68;;;;;;;;;;5064950;28;20208;-63
2023/04/19 03:31:49;;;;;;;10.10;9.10;;;;;;;;;;5062860;28;20201;-62
2023/04/19 03:34:19;;;;;;;10.65;9.55;;;;;;;;;;5051605;28;20231;-62
2023/04/19 03:36:49;;;;;;;11.32;10.05;;;;;;;;;;5052148;28;20189;-63
2023/04/19 03:39:19;;;;;;;9.88;8.68;;;;;;;;;;5070506;28;20206;-62
2023/04/19 03:41:51;;;;;;;9.65;8.65;;;;;;;;;;5071080;28;20188;-62
2023/04/19 03:44:39;;;;;;;9.90;9.00;;;;;;;;;;5061416;28;20204;-62
2023/04/19 03:47:08;;;;;;;10.50;9.20;;;;;;;;;;5070868;28;20567;-63
2023/04/19 03:49:43;;;;;;;9.98;8.98;;;;;;;;;;5067933;28;20206;-62
2023/04/19 03:52:11;;;;;;;9.77;8.88;;;;;;;;;;5050818;28;20208;-63
2023/04/19 03:54:41;;;;;;;10.20;9.20;;;;;;;;;;5051153;28;20200;-62
2023/04/19 03:57:17;;;;;;;12.65;9.05;;;;;;;;;;5051298;28;20261;-63
2023/04/19 03:59:45;;;;;;;13.43;10.32;;;;;;;;;;5051933;28;20207;-63
2023/04/19 04:02:13;;;;;;;11.18;9.95;;;;;;;;;;5050002;28;20214;-63
2023/04/19 04:04:42;;;;;;;10.88;9.40;;;;;;;;;;5057278;28;20211;-64
2023/04/19 04:07:10;;;;;;;10.60;9.60;;;;;;;;;;5066091;28;20200;-63
2023/04/19 04:09:38;;;;;;;8.65;7.65;;;;;;;;;;5071484;28;20219;-62
2023/04/19 04:12:08;;;;;;;12.95;9.40;;;;;;;;;;5071051;28;20196;-62
2023/04/19 04:14:36;;;;;;;12.77;8.82;;;;;;;;;;5070731;28;20203;-62
2023/04/19 04:17:06;;;;;;;9.60;8.60;;;;;;;;;;5070942;28;20206;-62
2023/04/19 04:19:35;;;;;;;11.52;10.13;;;;;;;;;;5071730;28;20219;-62
2023/04/19 04:22:04;;;;;;;10.73;8.55;;;;;;;;;;5071572;28;20203;-62
2023/04/19 04:24:40;;;;;;;11.10;9.48;;;;;;;;;;5070856;28;20192;-62
2023/04/19 04:27:21;;;;;;;9.80;8.90;;;;;;;;;;5058608;28;20659;-62
2023/04/19 04:29:51;;;;;;;9.65;8.40;;;;;;;;;;5060857;28;20204;-62
2023/04/19 04:32:21;;;;;;;12.57;11.25;;;;;;;;;;5057039;28;20201;-62
2023/04/19 04:34:50;;;;;;;9.88;8.35;;;;;;;;;;5060785;28;20199;-62
2023/04/19 04:37:28;;;;;;;10.95;8.60;;;;;;;;;;5075325;28;20191;-62
2023/04/19 04:39:56;;;;;;;9.60;8.60;;;;;;;;;;5074552;28;20208;-62
2023/04/19 04:42:30;;;;;;;9.07;8.27;;;;;;;;;;5075468;28;20256;-62
2023/04/19 04:45:00;;;;;;;10.43;9.43;;;;;;;;;;5074962;28;20198;-62
2023/04/19 04:47:32;;;;;;;10.10;9.10;;;;;;;;;;5075836;28;20279;-62
2023/04/19 04:50:02;;;;;;;10.18;9.18;;;;;;;;;;5075061;28;20223;-64
2023/04/19 04:52:31;;;;;;;9.98;8.70;;;;;;;;;;5075880;28;20203;-63
2023/04/19 04:55:10;;;;;;;9.13;8.00;;;;;;;;;;5074552;28;20286;-64
2023/04/19 04:57:44;;;;;;;10.15;9.15;;;;;;;;;;5052837;28;20627;-64
2023/04/19 05:00:23;;;;;;;10.63;9.20;;;;;;;;;;5056138;28;20192;-64
2023/04/19 05:03:04;;;;;;;9.50;8.52;;;;;;;;;;5047671;28;20201;-65
2023/04/19 05:05:37;;;;;;;11.75;8.45;;;;;;;;;;5070213;28;20189;-62
2023/04/19 05:08:05;;;;;;;11.90;8.70;;;;;;;;;;5067122;28;20201;-63
2023/04/19 05:10:34;;;;;;;10.35;9.25;;;;;;;;;;5066920;28;20295;-62
2023/04/19 05:13:04;;;;;;;12.90;9.27;;;;;;;;;;5059063;28;20265;-64
2023/04/19 05:15:33;;;;;;;10.10;8.65;;;;;;;;;;5068200;28;20196;-64
2023/04/19 05:18:02;;;;;;;11.85;9.18;;;;;;;;;;5069447;28;20243;-64
2023/04/19 05:20:32;;;;;;;9.63;8.70;;;;;;;;;;5074837;28;20224;-63
2023/04/19 05:23:09;;;;;;;11.68;9.15;;;;;;;;;;5067406;28;20207;-63
2023/04/19 05:25:38;;;;;;;12.00;10.45;;;;;;;;;;5063050;28;20204;-63
2023/04/19 05:28:08;;;;;;;14.18;8.82;;;;;;;;;;5064238;28;20658;-63
2023/04/19 05:30:45;;;;;;;15.68;10.93;;;;;;;;;;5065906;28;20214;-64
2023/04/19 05:33:14;;;;;;;12.55;9.40;;;;;;;;;;5059062;28;20205;-62
2023/04/19 05:35:42;;;;;;;10.93;9.82;;;;;;;;;;5058501;28;20210;-64
2023/04/19 05:38:10;;;;;;;12.02;10.45;;;;;;;;;;5073502;28;20208;-64
2023/04/19 05:40:39;;;;;;;12.48;10.15;;;;;;;;;;5069098;28;20200;-64
2023/04/19 05:43:09;;;;;;;11.77;10.48;;;;;;;;;;5066186;28;20253;-64
2023/04/19 05:45:38;;;;;;;11.82;9.93;;;;;;;;;;5053424;28;20189;-63
2023/04/19 05:48:06;;;;;;;11.10;10.00;;;;;;;;;;5063114;28;20211;-63
2023/04/19 05:50:58;;;;;;;10.48;9.38;;;;;;;;;;5054867;28;20201;-63
2023/04/19 05:53:36;;;;;;;13.52;9.90;;;;;;;;;;5070713;28;20786;-66
2023/04/19 05:56:05;;;;;;;11.65;10.13;;;;;;;;;;5068264;28;20279;-66
2023/04/19 05:58:35;;;;;;;11.85;10.30;;;;;;;;;;5052253;28;20687;-65
2023/04/19 06:01:07;;;;;;;9.55;8.43;;;;;;;;;;5054636;28;20257;-66
2023/04/19 06:03:35;;;;;;;9.50;8.50;;;;;;;;;;5051563;28;20643;-67
2023/04/19 06:06:03;;;;;;;11.38;8.90;;;;;;;;;;5052469;28;20201;-63
2023/04/19 06:08:31;;;;;;;10.82;9.70;;;;;;;;;;5060307;28;20196;-63
2023/04/19 06:11:00;;;;;;;10.18;8.77;;;;;;;;;;5056052;28;20237;-65
2023/04/19 06:13:28;;;;;;;11.55;8.95;;;;;;;;;;5051403;28;20201;-63
2023/04/19 06:15:58;;;;;;;11.68;10.18;;;;;;;;;;5052637;28;20204;-64
2023/04/19 06:18:27;;;;;;;10.15;9.15;;;;;;;;;;5051293;28;20674;-63
2023/04/19 06:20:55;;;;;;;11.52;9.82;;;;;;;;;;5053132;28;20278;-66
2023/04/19 06:23:24;;;;;;;10.35;8.70;;;;;;;;;;5053013;28;20212;-66
2023/04/19 06:25:52;;;;;;;8.52;7.70;;;;;;;;;;5052119;28;20216;-64
2023/04/19 06:28:20;;;;;;;12.75;8.80;;;;;;;;;;5053113;28;20208;-64
2023/04/19 06:30:49;;;;;;;10.13;9.10;;;;;;;;;;5054427;28;20217;-62
2023/04/19 06:33:18;;;;;;;8.52;7.45;;;;;;;;;;5053892;28;20543;-64
2023/04/19 06:35:47;;;;;;;9.98;8.57;;;;;;;;;;5053164;28;20334;-66
2023/04/19 06:38:15;;;;;;;13.15;9.40;;;;;;;;;;5052742;28;20200;-67
2023/04/19 06:40:43;;;;;;;10.02;9.02;;;;;;;;;;5053261;28;20196;-64
2023/04/19 06:43:11;;;;;;;16.42;9.82;;;;;;;;;;5052683;28;20222;-64
2023/04/19 06:45:40;;;;;;;11.45;9.60;;;;;;;;;;5052395;28;20207;-64
2023/04/19 06:48:08;;;;;;;9.82;8.82;;;;;;;;;;5051242;28;20704;-64
2023/04/19 06:50:37;;;;;;;11.30;10.07;;;;;;;;;;5052308;28;20220;-65
2023/04/19 06:53:06;;;;;;;9.90;8.90;;;;;;;;;;5050490;28;20268;-65
2023/04/19 06:55:34;;;;;;;10.53;8.77;;;;;;;;;;5052137;28;20679;-65
2023/04/19 06:58:02;;;;;;;10.85;9.75;;;;;;;;;;5051975;28;20599;-66
2023/04/19 07:00:30;;;;;;;9.98;8.98;;;;;;;;;;5055622;28;20281;-64
2023/04/19 07:03:00;;;;;;;10.63;9.52;;;;;;;;;;5071478;28;20204;-64
2023/04/19 07:05:28;;;;;;;11.20;9.52;;;;;;;;;;5071014;28;20293;-64
2023/04/19 07:07:58;;;;;;;9.35;8.50;;;;;;;;;;5073175;28;20566;-62
2023/04/19 07:10:26;;;;;;;10.70;9.60;;;;;;;;;;5072159;28;20739;-62
2023/04/19 07:12:54;;;;;;;10.80;9.70;;;;;;;;;;5072697;28;20261;-62
2023/04/19 07:15:22;;;;;;;10.97;9.87;;;;;;;;;;5073268;28;20212;-63
2023/04/19 07:17:51;;;;;;;12.23;10.05;;;;;;;;;;5073315;28;20577;-62
2023/04/19 07:20:19;;;;;;;10.83;9.60;;;;;;;;;;5073528;28;20366;-62
2023/04/19 07:22:47;;;;;;;11.43;10.32;;;;;;;;;;5073584;28;20606;-63
2023/04/19 07:25:17;;;;;;;11.50;10.30;;;;;;;;;;5072734;28;20723;-62
2023/04/19 07:27:45;;;;;;;11.80;10.55;;;;;;;;;;5073841;28;20210;-62
2023/04/19 07:30:13;;;;;;;11.07;9.93;;;;;;;;;;5072637;28;20900;-63
2023/04/19 07:32:41;;;;;;;10.82;9.73;;;;;;;;;;5076543;28;20658;-63
2023/04/19 07:35:10;;;;;;;11.07;10.00;;;;;;;;;;5074776;28;20279;-64
2023/04/19 07:37:38;;;;;;;11.47;10.07;;;;;;;;;;5059672;28;20638;-63
2023/04/19 07:40:07;;;;;;;11.30;10.20;;;;;;;;;;5052094;28;20590;-64
2023/04/19 07:42:37;;;;;;;11.13;10.10;;;;;;;;;;5051315;28;20639;-64
2023/04/19 07:45:05;;;;;;;11.30;10.20;;;;;;;;;;5052216;28;21127;-65
2023/04/19 07:47:34;;;;;;;12.13;9.37;;;;;;;;;;5051787;28;20745;-65
2023/04/19 07:50:04;;;;;;;11.27;10.07;;;;;;;;;;5051399;28;20958;-66
2023/04/19 07:52:32;;;;;;;10.30;9.30;;;;;;;;;;5051318;28;20637;-65
2023/04/19 07:55:01;;;;;;;10.43;9.17;;;;;;;;;;5051047;28;20973;-66
2023/04/19 07:57:29;;;;;;;10.43;9.53;;;;;;;;;;5050707;28;20607;-66
2023/04/19 07:59:58;;;;;;;12.57;10.60;;;;;;;;;;5051167;28;20607;-66
2023/04/19 08:02:27;;;;;;;11.57;10.40;;;;;;;;;;5049585;28;21204;-66
2023/04/19 08:04:56;;;;;;;10.57;9.57;;;;;;;;;;5050537;28;20607;-66
2023/04/19 08:07:25;;;;;;;13.03;9.93;;;;;;;;;;5053909;28;20619;-65
2023/04/19 08:09:53;;;;;;;16.13;10.50;;;;;;;;;;5054266;28;20666;-66
2023/04/19 08:12:21;;;;;;;13.33;10.93;;;;;;;;;;5055021;28;20591;-65
2023/04/19 08:14:49;;;;;;;11.20;10.17;;;;;;;;;;5054942;28;20589;-66
2023/04/19 08:17:20;;;;;;;11.73;10.70;;;;;;;;;;5055587;28;20615;-66
2023/04/19 08:19:48;;;;;;;11.50;10.50;;;;;;;;;;5055038;28;20647;-66
2023/04/19 08:22:17;;;;;;;11.40;10.40;;;;;;;;;;5055507;28;20621;-66
2023/04/19 08:24:45;;;;;;;12.53;11.47;;;;;;;;;;5053085;28;20980;-65
2023/04/19 08:27:13;;;;;;;11.13;9.97;;;;;;;;;;5053948;28;20684;-65
2023/04/19 08:29:42;;;;;;;12.50;11.50;;;;;;;;;;5054604;28;21054;-66
2023/04/19 08:32:10;;;;;;;12.77;11.40;;;;;;;;;;5054650;28;20615;-66
2023/04/19 08:34:40;;;;;;;11.67;10.67;;;;;;;;;;5055224;28;20629;-65
2023/04/19 08:37:08;;;;;;;11.90;10.90;;;;;;;;;;5054660;28;20631;-65
2023/04/19 08:39:36;;;;;;;11.23;10.33;;;;;;;;;;5055069;28;20617;-65
2023/04/19 08:42:05;;;;;;;11.40;10.30;;;;;;;;;;5055301;28;20625;-65
2023/04/19 08:44:34;;;;;;;11.60;10.60;;;;;;;;;;5054325;28;20617;-65
2023/04/19 08:47:02;;;;;;;12.70;11.60;;;;;;;;;;5054968;28;20649;-65
2023/04/19 08:49:31;;;;;;;13.67;12.30;;;;;;;;;;5054981;28;20615;-65
2023/04/19 08:52:01;;;;;;;12.57;11.57;;;;;;;;;;5054296;28;21101;-64
2023/04/19 08:54:30;;;;;;;12.33;11.23;;;;;;;;;;5055194;28;20553;-64
2023/04/19 08:56:59;;;;;;;11.60;10.50;;;;;;;;;;5054887;28;20581;-64
2023/04/19 08:59:27;;;;;;;11.20;10.10;;;;;;;;;;5054582;28;20597;-65
2023/04/19 09:01:58;;;;;;;10.70;9.70;;;;;;;;;;5070513;28;20912;-64
2023/04/19 09:04:26;;;;;;;11.50;10.40;;;;;;;;;;5073361;28;20594;-66
2023/04/19 09:06:54;;;;;;;10.20;9.30;;;;;;;;;;5074176;28;20591;-66
2023/04/19 09:09:25;;;;;;;12.40;10.35;;;;;;;;;;5070965;28;20601;-65
2023/04/19 09:11:53;;;;;;;9.70;8.90;;;;;;;;;;5055443;28;20682;-66
2023/04/19 09:14:22;;;;;;;10.50;9.40;;;;;;;;;;5053973;28;20618;-65
2023/04/19 09:16:51;;;;;;;10.70;9.60;;;;;;;;;;5054918;28;20595;-67
2023/04/19 09:19:20;;;;;;;10.50;9.45;;;;;;;;;;5067201;28;20589;-66
2023/04/19 09:21:50;;;;;;;11.38;9.40;;;;;;;;;;5074550;28;20234;-67
2023/04/19 09:24:18;;;;;;;11.87;10.63;;;;;;;;;;5073293;28;20205;-67
2023/04/19 09:26:56;;;;;;;12.33;9.43;;;;;;;;;;5074125;28;20589;-67
2023/04/19 09:29:25;;;;;;;11.33;10.20;;;;;;;;;;5073232;28;20566;-67
2023/04/19 09:31:58;;;;;;;16.40;11.50;;;;;;;;;;5073694;28;20627;-67
2023/04/19 09:34:27;;;;;;;10.02;9.13;;;;;;;;;;5073399;28;20195;-65
2023/04/19 09:36:56;;;;;;;11.50;10.32;;;;;;;;;;5072718;28;20204;-66
2023/04/19 09:39:29;;;;;;;12.27;10.60;;;;;;;;;;5057440;28;20223;-66
2023/04/19 09:41:59;;;;;;;13.30;11.95;;;;;;;;;;5055062;28;20570;-63
2023/04/19 09:44:27;;;;;;;12.93;11.50;;;;;;;;;;5051727;28;20200;-63
2023/04/19 09:46:55;;;;;;;13.65;11.20;;;;;;;;;;5054047;28;20596;-63
2023/04/19 09:49:25;;;;;;;13.23;9.73;;;;;;;;;;5053556;28;20220;-63
2023/04/19 09:51:54;;;;;;;10.43;9.33;;;;;;;;;;5055797;28;20212;-63
2023/04/19 09:54:26;;;;;;;12.30;10.52;;;;;;;;;;5054298;28;20684;-63
2023/04/19 09:56:54;;;;;;;14.03;9.40;;;;;;;;;;5054489;28;20215;-62
2023/04/19 09:59:24;;;;;;;11.90;10.13;;;;;;;;;;5055195;28;20627;-63
2023/04/19 10:01:54;;;;;;;12.80;10.63;;;;;;;;;;5054194;28;20598;-63
2023/04/19 10:04:23;;;;;;;10.90;9.90;;;;;;;;;;5059427;28;20606;-62
2023/04/19 10:06:51;;;;;;;11.83;9.60;;;;;;;;;;5065848;28;20607;-63
2023/04/19 10:09:20;;;;;;;18.93;11.10;;;;;;;;;;5074824;28;20626;-63
2023/04/19 10:11:49;;;;;;;12.03;10.30;;;;;;;;;;5074804;28;20658;-63
2023/04/19 10:14:20;;;;;;;11.30;10.20;;;;;;;;;;5075257;28;20602;-62
2023/04/19 10:16:50;;;;;;;11.30;10.20;;;;;;;;;;5060047;28;20602;-63
2023/04/19 10:19:19;;;;;;;10.80;9.70;;;;;;;;;;5066997;28;21167;-62
2023/04/19 10:21:48;;;;;;;13.13;11.67;;;;;;;;;;5073847;28;20580;-63
2023/04/19 10:24:17;;;;;;;12.03;10.83;;;;;;;;;;5063502;28;20599;-64
2023/04/19 10:27:03;;;;;;;12.20;11.00;;;;;;;;;;5066540;28;20623;-64
2023/04/19 10:29:50;;;;;;;11.43;10.33;;;;;;;;;;5052580;28;20575;-64
2023/04/19 10:32:20;;;;;;;12.67;11.47;;;;;;;;;;5055460;28;20610;-69
2023/04/19 10:34:48;;;;;;;11.30;10.30;;;;;;;;;;5073158;28;20585;-62
2023/04/19 10:37:16;;;;;;;11.63;10.53;;;;;;;;;;5073119;28;20596;-63
2023/04/19 10:39:45;;;;;;;11.80;10.80;;;;;;;;;;5072567;28;21248;-63
2023/04/19 10:42:13;;;;;;;12.03;10.23;;;;;;;;;;5070619;28;20970;-63
2023/04/19 10:44:41;;;;;;;11.83;10.63;;;;;;;;;;5067002;28;20615;-64
2023/04/19 10:47:10;;;;;;;11.83;9.70;;;;;;;;;;5060872;28;20627;-62
2023/04/19 10:49:46;;;;;;;13.23;12.03;;;;;;;;;;5067103;28;20616;-63
2023/04/19 10:52:28;;;;;;;20.30;10.30;;;;;;;;;;5072202;28;21281;-63
2023/04/19 10:54:57;;;;;;;12.30;11.00;;;;;;;;;;5072799;28;20593;-61
2023/04/19 10:57:26;;;;;;;12.07;11.07;;;;;;;;;;5072389;28;20584;-62
2023/04/19 11:00:09;;;;;;;15.67;12.57;;;;;;;;;;5072106;28;20589;-62
2023/04/19 11:02:38;;;;;;;12.07;10.97;;;;;;;;;;5070578;28;20618;-61
2023/04/19 11:05:08;;;;;;;17.50;11.47;;;;;;;;;;5070476;28;20629;-62
2023/04/19 11:07:40;;;;;;;14.67;10.90;;;;;;;;;;5061692;28;20575;-62
2023/04/19 11:10:10;;;;;;;13.83;11.77;;;;;;;;;;5060563;28;20732;-62
2023/04/19 11:12:38;;;;;;;17.10;11.10;;;;;;;;;;5059259;28;20669;-62
2023/04/19 11:15:08;;;;;;;13.37;10.50;;;;;;;;;;5056520;28;20590;-63
2023/04/19 11:17:38;;;;;;;12.15;11.15;;;;;;;;;;5054166;28;20607;-63
2023/04/19 11:20:10;;;;;;;12.70;10.93;;;;;;;;;;5056068;28;20295;-63
2023/04/19 11:22:39;;;;;;;13.05;11.80;;;;;;;;;;5061369;28;21104;-62
2023/04/19 11:25:08;;;;;;;13.00;10.70;;;;;;;;;;5061599;28;20559;-63
2023/04/19 11:27:36;;;;;;;12.13;10.83;;;;;;;;;;5061003;28;20204;-64
2023/04/19 11:30:05;;;;;;;13.48;12.10;;;;;;;;;;5058819;28;20594;-63
2023/04/19 11:32:34;;;;;;;12.55;10.75;;;;;;;;;;5059134;28;20226;-62
2023/04/19 11:35:10;;;;;;;13.13;10.10;;;;;;;;;;5059310;28;20675;-63
2023/04/19 11:37:39;;;;;;;11.90;10.53;;;;;;;;;;5058262;28;21113;-63
2023/04/19 11:40:08;;;;;;;12.00;10.90;;;;;;;;;;5062455;28;20617;-63
2023/04/19 11:42:36;;;;;;;14.75;11.30;;;;;;;;;;5071477;28;20200;-64
2023/04/19 11:45:05;;;;;;;11.02;9.93;;;;;;;;;;5068440;28;20265;-62
2023/04/19 11:47:33;;;;;;;13.43;11.88;;;;;;;;;;5059388;28;20201;-62
2023/04/19 11:50:23;;;;;;;11.90;9.93;;;;;;;;;;5060484;28;20213;-63
2023/04/19 11:52:52;;;;;;;13.23;9.90;;;;;;;;;;5062348;28;20562;-62
2023/04/19 11:55:21;;;;;;;11.40;10.30;;;;;;;;;;5065517;28;20206;-62
2023/04/19 11:57:49;;;;;;;12.27;11.07;;;;;;;;;;5071373;28;20587;-63
2023/04/19 12:00:27;;;;;;;13.27;10.52;;;;;;;;;;5071396;28;20612;-63
2023/04/19 12:02:56;;;;;;;14.13;9.83;;;;;;;;;;5069934;28;20180;-63
2023/04/19 12:05:24;;;;;;;10.63;9.73;;;;;;;;;;5068687;28;20957;-63
2023/04/19 12:08:01;;;;;;;12.33;11.10;;;;;;;;;;5072062;28;20229;-63
2023/04/19 12:10:29;;;;;;;11.60;10.07;;;;;;;;;;5070905;28;20668;-62
2023/04/19 12:12:58;;;;;;;11.27;10.07;;;;;;;;;;5070869;28;20664;-62
2023/04/19 12:15:41;;;;;;;11.70;10.33;;;;;;;;;;5071346;28;20610;-63
2023/04/19 12:18:10;;;;;;;11.73;10.57;;;;;;;;;;5071566;28;20567;-62
2023/04/19 12:20:39;;;;;;;11.27;10.20;;;;;;;;;;5054879;28;20954;-62
2023/04/19 12:23:10;;;;;;;11.80;10.30;;;;;;;;;;5049453;28;20982;-62
2023/04/19 12:25:38;;;;;;;12.77;10.70;;;;;;;;;;5060054;28;20618;-63
2023/04/19 12:28:06;;;;;;;11.53;10.37;;;;;;;;;;5070103;28;20683;-63
2023/04/19 12:30:35;;;;;;;16.90;10.67;;;;;;;;;;5070749;28;20621;-63
2023/04/19 12:33:04;;;;;;;10.60;9.50;;;;;;;;;;5070515;28;21218;-61
2023/04/19 12:35:32;;;;;;;12.07;10.83;;;;;;;;;;5070894;28;20951;-61
2023/04/19 12:38:01;;;;;;;12.87;10.90;;;;;;;;;;5067377;28;20627;-62
2023/04/19 12:40:31;;;;;;;11.27;9.50;;;;;;;;;;5050283;28;20590;-62
2023/04/19 12:42:59;;;;;;;15.93;10.47;;;;;;;;;;5060033;28;21019;-62
2023/04/19 12:45:28;;;;;;;13.40;11.30;;;;;;;;;;5060997;28;20605;-62
2023/04/19 12:47:56;;;;;;;11.80;10.47;;;;;;;;;;5067399;28;20688;-63
2023/04/19 12:50:24;;;;;;;11.10;9.63;;;;;;;;;;5065070;28;20628;-62
2023/04/19 12:52:52;;;;;;;11.47;10.43;;;;;;;;;;5064643;28;20669;-62
2023/04/19 12:55:21;;;;;;;12.10;10.87;;;;;;;;;;5059092;28;20626;-62
2023/04/19 12:57:50;;;;;;;14.60;10.03;;;;;;;;;;5061850;28;20639;-62
2023/04/19 13:00:18;;;;;;;12.93;10.73;;;;;;;;;;5057605;28;20630;-64
2023/04/19 13:02:48;;;;;;;12.17;10.13;;;;;;;;;;5057083;28;20979;-64
2023/04/19 13:05:16;;;;;;;14.00;11.00;;;;;;;;;;5058394;28;20634;-64
2023/04/19 13:07:44;;;;;;;12.43;11.23;;;;;;;;;;5064929;28;20640;-65
2023/04/19 13:10:12;;;;;;;12.53;11.43;;;;;;;;;;5073102;28;20645;-63
2023/04/19 13:12:40;;;;;;;12.77;11.43;;;;;;;;;;5073015;28;20683;-64
2023/04/19 13:15:11;;;;;;;12.07;10.97;;;;;;;;;;5056449;28;20645;-64
2023/04/19 13:17:39;;;;;;;12.00;11.07;;;;;;;;;;5059825;28;20598;-64
2023/04/19 13:20:08;;;;;;;12.70;11.53;;;;;;;;;;5065759;28;20664;-64
2023/04/19 13:22:36;;;;;;;13.50;12.30;;;;;;;;;;5068547;28;20626;-63
2023/04/19 13:25:04;;;;;;;13.30;11.57;;;;;;;;;;5070726;28;21001;-64
2023/04/19 13:27:33;;;;;;;12.67;11.57;;;;;;;;;;5069661;28;20630;-64
2023/04/19 13:30:01;;;;;;;13.33;12.23;;;;;;;;;;5068582;28;20630;-64
2023/04/19 13:32:31;;;;;;;13.30;12.17;;;;;;;;;;5055848;28;20661;-64
2023/04/19 13:34:59;;;;;;;12.83;11.60;;;;;;;;;;5069851;28;20630;-64
2023/04/19 13:37:27;;;;;;;14.23;12.83;;;;;;;;;;5077707;28;20633;-63
2023/04/19 13:39:55;;;;;;;11.30;10.50;;;;;;;;;;5062655;28;21017;-64
2023/04/19 13:42:24;;;;;;;17.10;11.50;;;;;;;;;;5064626;28;20626;-64
2023/04/19 13:44:52;;;;;;;13.40;12.20;;;;;;;;;;5061625;28;20636;-65
2023/04/19 13:47:20;;;;;;;16.23;10.97;;;;;;;;;;5064850;28;20642;-64
2023/04/19 13:49:51;;;;;;;12.20;11.10;;;;;;;;;;5055728;28;20616;-64
2023/04/19 13:52:19;;;;;;;13.27;12.10;;;;;;;;;;5061806;28;20687;-64
2023/04/19 13:54:47;;;;;;;16.03;12.40;;;;;;;;;;5063950;28;20636;-64
2023/04/19 13:57:15;;;;;;;13.13;12.03;;;;;;;;;;5067860;28;20645;-65
2023/04/19 13:59:44;;;;;;;13.10;12.10;;;;;;;;;;5065131;28;20626;-64
2023/04/19 14:02:12;;;;;;;13.33;12.03;;;;;;;;;;5071959;28;20618;-64
2023/04/19 14:04:40;;;;;;;14.00;11.87;;;;;;;;;;5063830;28;20630;-64
2023/04/19 14:07:09;;;;;;;13.67;12.40;;;;;;;;;;5066487;28;20965;-64
2023/04/19 14:09:38;;;;;;;13.50;12.17;;;;;;;;;;5066168;28;20626;-64
2023/04/19 14:12:08;;;;;;;14.53;13.30;;;;;;;;;;5063866;28;20618;-64
2023/04/19 14:14:36;;;;;;;15.93;14.83;;;;;;;;;;5060472;28;20660;-63
2023/04/19 14:17:04;;;;;;;14.90;13.50;;;;;;;;;;5066548;28;21130;-62
2023/04/19 14:19:32;;;;;;;18.00;15.13;;;;;;;;;;5061708;28;20641;-63
2023/04/19 14:22:00;;;;;;;16.33;14.53;;;;;;;;;;5070573;28;21167;-63
2023/04/19 14:24:30;;;;;;;19.30;17.27;;;;;;;;;;5071874;28;20628;-63
2023/04/19 14:26:58;;;;;;;15.30;13.97;;;;;;;;;;5069569;28;20664;-64
2023/04/19 14:29:27;;;;;;;16.30;15.00;;;;;;;;;;5066979;28;20681;-63
2023/04/19 14:31:57;;;;;;;15.63;14.33;;;;;;;;;;5063389;28;20636;-63
2023/04/19 14:34:26;;;;;;;16.63;15.33;;;;;;;;;;5071421;28;20645;-64
2023/04/19 14:36:54;;;;;;;16.00;14.70;;;;;;;;;;5063433;28;20623;-64